Dixon, California
Current Conditions -  °F | °C
As of 2:53 PM on Thursday 23 Oct 2014 (Local Time) from KVCB Reporting Station
Clear Clear  
Wind Chill: 76°   Ceiling: Unl
Heat Index: 76°   Visibility: 10mi
Dew Point: 53°   Wind: 5mph
Humidity: 45%   Direction: NA
Pressure: 30.01"   Gusts: NA
Location:  38.45°N, 121.81°W
Report Text: KVCB 232153Z AUTO VRB04KT 10SM CLR 24/12 A3001 RMK AO2 SLP161 T02440117 TSNO
Loading
Personal Weather Stations






























Interactive Weather Map
Tropical Storm Tracking
New forecast layout! Learn more

10-Day Weather Forecast

Advertisements
Track Severe Weather on mobile